Nearby METAR Reports

 

KLXT - Lees Summit Muni, Missouri, USA
Distance from station: E 5mi, 9km
Updated: Tue, 19-Sep-2017 12:53pm CDT
Partly cloudy
Partly cloudy
 Wind from S
Wind: S 14 mph , 22 km/h
Temperature: 84°F , 29°C
Heat Index: 88°F , 31°C
Dew Point: 70°F , 21°C
Humidity: 62%
Barometer: 29.87 inHg , 1011.5 hPa
Clouds: Partly cloudy
Visibility: 10 miles , 16 km
Cloud details: Partly cloudy 8500 ft
2017/09/19 17:53 KLXT 191753Z AUTO 17012KT 10SM SCT085 29/21 A2987 RMK AO2 SLP104 T02890211 10289 20189 56017
KMKC - Kansas City/Dntn, Missouri, USA
Distance from station: NW 12mi, 19km
Updated: Tue, 19-Sep-2017 12:54pm CDT
Few Clouds
Few Clouds
 Wind from SSE
Wind: SSE 12 mph , 19 km/h, Gust: 21 mph , 33 km/h
Temperature: 86°F , 30°C
Heat Index: 91°F , 33°C
Dew Point: 70°F , 21°C
Humidity: 59%
Barometer: 29.83 inHg , 1010.2 hPa
Clouds: Few Clouds
Visibility: 10 miles , 16 km
Cloud details: Few Clouds 7000 ft
2017/09/19 17:54 KMKC 191754Z 16010G18KT 10SM FEW070 30/21 A2983 RMK AO2 SLP094 T03000211 10300 20206 56020
 
KIXD - Olathe/Industria, Kansas, USA
Distance from station: WSW 25mi, 41km
Updated: Tue, 19-Sep-2017 12:53pm CDT
Clear
Clear
 Wind from SSE
Wind: SSE 14 mph , 22 km/h, Gust: 23 mph , 37 km/h
Temperature: 82°F , 28°C
Heat Index: 86°F , 30°C
Dew Point: 70°F , 21°C
Humidity: 66%
Barometer: 29.84 inHg , 1010.5 hPa
Clouds: Clear
Visibility: 10 miles , 16 km
2017/09/19 17:53 KIXD 191753Z 15012G20KT 10SM CLR 28/21 A2984 RMK AO2 SLP093 T02830211 10283 20189 58022
KMCI - Kansas City/Intl, Missouri, USA
Distance from station: NW 26mi, 42km
Updated: Tue, 19-Sep-2017 12:53pm CDT
Few Clouds
Few Clouds
 Wind from SE
Wind: SE 16 mph , 26 km/h
Temperature: 82°F , 28°C
Heat Index: 86°F , 30°C
Dew Point: 70°F , 21°C
Humidity: 66%
Barometer: 29.84 inHg , 1010.5 hPa
Clouds: Few Clouds
Visibility: 10 miles , 16 km
Cloud details: Few Clouds 7000 ft
Few Clouds 25000 ft
2017/09/19 17:53 KMCI 191753Z 14014KT 10SM FEW070 FEW250 28/21 A2984 RMK AO2 SLP094 T02830206 10283 20189 56020
 
KRCM - Warrensburg Skyh, Missouri, USA
Distance from station: ESE 38mi, 62km
Updated: Tue, 19-Sep-2017 1:35pm CDT
Partly cloudy
Partly cloudy
 Wind from SSE
Wind: SSE 13 mph , 20 km/h
Temperature: 82°F , 28°C
Heat Index: 85°F , 29°C
Dew Point: 68°F , 20°C
Humidity: 62%
Barometer: 29.86 inHg , 1011.2 hPa
Clouds: Partly cloudy
Visibility: 10 miles , 16 km
Cloud details: Partly cloudy 8000 ft
2017/09/19 18:35 KRCM 191835Z AUTO 16011KT 10SM SCT080 28/20 A2986 RMK AO2
KLWC - Lawrence, Kansas, USA
Distance from station: W 40mi, 65km
Updated: Tue, 19-Sep-2017 12:52pm CDT
Clear
Clear
 Wind from SE
Wind: SE 17 mph , 28 km/h, Gust: 24 mph , 39 km/h
Temperature: 84°F , 29°C
Heat Index: 89°F , 32°C
Dew Point: 72°F , 22°C
Humidity: 66%
Barometer: 29.80 inHg , 1009.1 hPa
Clouds: Clear
Visibility: 10 miles , 16 km
2017/09/19 17:52 KLWC 191752Z AUTO 13015G21KT 10SM CLR 29/22 A2980 RMK AO2 SLP085 T02940217 10294 20194 58024
 
KSZL - Whiteman Afb, Missouri, USA
Distance from station: ESE 53mi, 86km
Updated: Tue, 19-Sep-2017 12:58pm CDT
Few Clouds
Few Clouds
 Wind from S
Wind: S 13 mph , 20 km/h
Temperature: 84°F , 29°C
Heat Index: 87°F , 31°C
Dew Point: 68°F , 20°C
Humidity: 58%
Barometer: 29.88 inHg , 1011.9 hPa
Clouds: Few Clouds
Visibility: 10 miles , 16 km
Cloud details: Few Clouds 4000 ft
Few Clouds 20000 ft
2017/09/19 17:58 KSZL 191758Z 18011KT 10SM FEW040 FEW200 29/20 A2988 RMK AO2A SLP113 60001 T02880229 10288 20183 58016
KSTJ - St. Joseph, Missouri, USA
Distance from station: NNW 59mi, 95km
Updated: Tue, 19-Sep-2017 12:53pm CDT
Clear
Clear
 Wind from SE
Wind: SE 15 mph , 24 km/h
Temperature: 86°F , 30°C
Heat Index: 92°F , 33°C
Dew Point: 72°F , 22°C
Humidity: 62%
Barometer: 29.80 inHg , 1009.1 hPa
Clouds: Clear
Visibility: 10 miles , 16 km
2017/09/19 17:53 KSTJ 191753Z 14013KT 10SM CLR 30/22 A2980 RMK AO2 SLP084 T03000217 10300 20172 56026
 
KGLY - Clinton, Missouri, USA
Distance from station: SE 61mi, 98km
Updated: Tue, 19-Sep-2017 1:35pm CDT
Few Clouds
Few Clouds
 Wind from S
Wind: S 12 mph , 19 km/h
Temperature: 84°F , 29°C
Heat Index: 89°F , 32°C
Dew Point: 72°F , 22°C
Humidity: 66%
Barometer: 29.88 inHg , 1011.9 hPa
Clouds: Few Clouds
Visibility: 10 miles , 16 km
Cloud details: Few Clouds 3300 ft
2017/09/19 18:35 KGLY 191835Z AUTO 17010KT 10SM FEW033 29/22 A2988 RMK AO2
KFOE - Topeka/Forbes, Kansas, USA
Distance from station: W 64mi, 103km
Updated: Tue, 19-Sep-2017 12:53pm CDT
Clear
Clear
 Wind from S
Wind: S 15 mph , 24 km/h, Gust: 22 mph , 35 km/h
Temperature: 88°F , 31°C
Heat Index: 95°F , 35°C
Dew Point: 72°F , 22°C
Humidity: 59%
Barometer: 29.79 inHg , 1008.8 hPa
Clouds: Clear
Visibility: 10 miles , 16 km
2017/09/19 17:53 KFOE 191753Z 17013G19KT 10SM CLR 31/22 A2979 RMK AO2 SLP077 T03110217 10311 20189 58021
 
KDMO - Sedalia, Missouri, USA
Distance from station: ESE 72mi, 116km
Updated: Tue, 19-Sep-2017 12:53pm CDT
Clear
Clear
 Wind from S
Wind: S 13 mph , 20 km/h, Gust: 22 mph , 35 km/h
Temperature: 84°F , 29°C
Heat Index: 88°F , 31°C
Dew Point: 70°F , 21°C
Humidity: 62%
Barometer: 29.92 inHg , 1013.2 hPa
Clouds: Clear
Visibility: 10 miles , 16 km
2017/09/19 17:53 KDMO 191753Z AUTO 18011G19KT 10SM CLR 29/21 A2992 RMK AO2 SLP123 60000 T02940211 10294 20172 58014
KCDJ - Chillicothe, Missouri, USA
Distance from station: NE 74mi, 120km
Updated: Tue, 19-Sep-2017 12:52pm CDT

 Wind from varies
Wind: varies 7 mph , 11 km/h
Temperature: 81°F , 27°C
Heat Index: 85°F , 29°C
Dew Point: 72°F , 22°C
Humidity: 74%
Barometer: 29.88 inHg , 1011.9 hPa
2017/09/19 17:52 KCDJ 191752Z AUTO VRB06KT 27/22 A2988 RMK AO1 SLP109 60011 T02720217 10272 20178 58017
 
KFNB - Falls City/Brenn, Nebraska, USA
Distance from station: NW 96mi, 154km
Updated: Tue, 19-Sep-2017 12:53pm CDT
Clear
Clear
 Wind from SSE
Wind: SSE 17 mph , 28 km/h, Gust: 28 mph , 44 km/h
Temperature: 86°F , 30°C
Heat Index: 88°F , 31°C
Dew Point: 66°F , 19°C
Humidity: 52%
Barometer: 29.76 inHg , 1007.8 hPa
Clouds: Clear
Visibility: 10 miles , 16 km
2017/09/19 17:53 KFNB 191753Z AUTO 15015G24KT 10SM CLR 30/19 A2976 RMK AO2 SLP068 T03000194 10300 20183 58026
KVER - Boonville, Missouri, USA
Distance from station: E 96mi, 154km
Updated: Tue, 19-Sep-2017 1:15pm CDT
Clear
Clear
 Wind from SSE
Wind: SSE 7 mph , 11 km/h
Temperature: 84°F , 29°C
Heat Index: 87°F , 31°C
Dew Point: 68°F , 20°C
Humidity: 58%
Barometer: 29.90 inHg , 1012.5 hPa
Clouds: Clear
Visibility: 10 miles , 16 km
2017/09/19 18:15 KVER 191815Z AUTO 16006KT 10SM CLR 29/20 A2990 RMK AO2 T02880196